| time (UTC) | temp F | wind direction | speed MPH | gust MPH | rain 1hr in | rain 24hr in | rain mn in | humidity % | barometer mb |
| 20260510184528 | 62 | 339 | 7.0 | 15.0 | 0.00 | 0.00 | 0.00 | 33 | 1018.4 |
| 20260510183026 | 59 | 5 | 8.0 | 16.0 | 0.00 | 0.00 | 0.00 | 36 | 1018.5 |
| 20260510181521 | 58 | 355 | 11.0 | 16.0 | 0.00 | 0.00 | 0.00 | 37 | 1018.6 |
| 20260510180020 | 59 | 9 | 9.0 | 14.0 | 0.00 | 0.00 | 0.00 | 38 | 1018.6 |
| 20260510174519 | 59 | 284 | 3.0 | 15.0 | 0.00 | 0.00 | 0.00 | 37 | 1018.6 |
| 20260510173015 | 58 | 323 | 5.0 | 12.0 | 0.00 | 0.00 | 0.00 | 39 | 1018.7 |
| 20260510171559 | 57 | 15 | 6.0 | 15.0 | 0.00 | 0.00 | 0.00 | 38 | 1018.7 |
| 20260510170041 | 58 | 69 | 6.0 | 14.0 | 0.00 | 0.00 | 0.00 | 40 | 1018.6 |
| 20260510164537 | 57 | 105 | 6.0 | 13.0 | 0.00 | 0.00 | 0.00 | 41 | 1018.8 |
| 20260510163035 | 57 | 5 | 9.0 | 14.0 | 0.00 | 0.00 | 0.00 | 41 | 1018.8 |
| 20260510161532 | 57 | 326 | 4.0 | 12.0 | 0.00 | 0.00 | 0.00 | 43 | 1018.8 |
| 20260510160033 | 55 | 90 | 4.0 | 9.0 | 0.00 | 0.00 | 0.00 | 45 | 1018.7 |
| 20260510154540 | 54 | 88 | 2.0 | 8.0 | 0.00 | 0.00 | 0.00 | 46 | 1018.7 |
| 20260510153041 | 53 | 22 | 3.0 | 7.0 | 0.00 | 0.00 | 0.00 | 49 | 1018.7 |
| 20260510151525 | 53 | 34 | 3.0 | 9.0 | 0.00 | 0.00 | 0.00 | 48 | 1018.6 |
| 20260510150026 | 51 | 36 | 3.0 | 9.0 | 0.00 | 0.00 | 0.00 | 49 | 1018.6 |
| 20260510144544 | 50 | 360 | 2.0 | 11.0 | 0.00 | 0.00 | 0.00 | 53 | 1018.7 |
| 20260510143021 | 49 | 355 | 6.0 | 9.0 | 0.00 | 0.00 | 0.00 | 54 | 1018.7 |
| 20260510141522 | 50 | 355 | 2.0 | 7.0 | 0.00 | 0.00 | 0.00 | 54 | 1018.6 |
| 20260510141520 | 50 | 341 | 3.0 | 7.0 | 0.00 | 0.00 | 0.00 | 54 | 1018.6 |
| 20260510140018 | 50 | 360 | 1.0 | 5.0 | 0.00 | 0.00 | 0.00 | 55 | 1018.5 |
| 20260510134518 | 48 | 340 | 1.0 | 4.0 | 0.00 | 0.00 | 0.00 | 57 | 1018.4 |
| 20260510133015 | 48 | 287 | 0.0 | 2.0 | 0.00 | 0.00 | 0.00 | 56 | 1018.4 |
| 20260510131513 | 47 | 339 | 1.0 | 3.0 | 0.00 | 0.00 | 0.00 | 56 | 1018.4 |
| 20260510130013 | 47 | 168 | 0.0 | 1.0 | 0.00 | 0.00 | 0.00 | 62 | 1018.3 |
| 20260510124516 | 46 | 209 | 0.0 | 2.0 | 0.00 | 0.00 | 0.00 | 63 | 1018.0 |
| 20260510123007 | 43 | 309 | 0.0 | 2.0 | 0.00 | 0.00 | 0.00 | 68 | 1017.7 |
| 20260510121506 | 43 | 213 | 0.0 | 0.0 | 0.00 | 0.00 | 0.00 | 67 | 1017.5 |
| 20260510120009 | 40 | 213 | 0.0 | 1.0 | 0.00 | 0.00 | 0.00 | 71 | 1017.3 |
| 20260510114501 | 39 | 213 | 0.0 | 1.0 | 0.00 | 0.00 | 0.00 | 73 | 1017.2 |
| 20260510113059 | 38 | 228 | 0.0 | 2.0 | 0.00 | 0.00 | 0.00 | 73 | 1017.1 |
| 20260510111600 | 39 | 260 | 0.0 | 1.0 | 0.00 | 0.00 | 0.00 | 67 | 1017.1 |
| 20260510110056 | 39 | 192 | 0.0 | 1.0 | 0.00 | 0.00 | 0.00 | 70 | 1016.9 |
| 20260510104608 | 38 | 192 | 0.0 | 1.0 | 0.00 | 0.00 | 0.00 | 71 | 1016.8 |
| 20260510103022 | 37 | 192 | 0.0 | 3.0 | 0.00 | 0.00 | 0.00 | 75 | 1016.6 |
| 20260510101519 | 36 | 333 | 0.0 | 3.0 | 0.00 | 0.00 | 0.00 | 73 | 1016.3 |
| 20260510100016 | 38 | 218 | 0.0 | 2.0 | 0.00 | 0.00 | 0.00 | 69 | 1015.9 |
| 20260510094513 | 36 | 218 | 1.0 | 3.0 | 0.00 | 0.00 | 0.00 | 71 | 1015.8 |
| 20260510093010 | 40 | 218 | 0.0 | 0.0 | 0.00 | 0.00 | 0.00 | 68 | 1015.7 |
| 20260510091510 | 39 | 218 | 0.0 | 1.0 | 0.00 | 0.00 | 0.00 | 68 | 1015.6 |
| 20260510090007 | 38 | 218 | 0.0 | 2.0 | 0.00 | 0.00 | 0.00 | 70 | 1015.5 |
| 20260510084510 | 39 | 218 | 0.0 | 1.0 | 0.00 | 0.00 | 0.00 | 68 | 1015.3 |
| 20260510083001 | 39 | 218 | 0.0 | 1.0 | 0.00 | 0.00 | 0.00 | 68 | 1015.0 |
| 20260510081618 | 40 | 218 | 0.0 | 1.0 | 0.00 | 0.00 | 0.00 | 68 | 1014.9 |
| 20260510081501 | 40 | 218 | 0.0 | 1.0 | 0.00 | 0.00 | 0.00 | 68 | 1014.9 |
| 20260510080056 | 40 | 218 | 0.0 | 1.0 | 0.00 | 0.00 | 0.00 | 68 | 1014.8 |
| 20260510074556 | 40 | 218 | 0.0 | 2.0 | 0.00 | 0.00 | 0.00 | 69 | 1014.6 |
| 20260510073053 | 40 | 218 | 0.0 | 1.0 | 0.00 | 0.00 | 0.00 | 66 | 1014.6 |
| 20260510071548 | 42 | 218 | 0.0 | 0.0 | 0.00 | 0.00 | 0.00 | 65 | 1014.5 |
| 20260510070045 | 43 | 218 | 0.0 | 1.0 | 0.00 | 0.00 | 0.00 | 64 | 1014.4 |
| 20260510064547 | 43 | 218 | 0.0 | 1.0 | 0.00 | 0.00 | 0.00 | 64 | 1014.4 |
| 20260510063042 | 43 | 218 | 1.0 | 2.0 | 0.00 | 0.00 | 0.00 | 64 | 1014.4 |
| 20260510061550 | 43 | 225 | 1.0 | 3.0 | 0.00 | 0.00 | 0.00 | 63 | 1014.2 |
| 20260510060009 | 42 | 217 | 1.0 | 3.0 | 0.00 | 0.00 | 0.00 | 66 | 1014.2 |
| 20260510054508 | 44 | 232 | 0.0 | 2.0 | 0.00 | 0.00 | 0.00 | 62 | 1014.1 |
| 20260510053002 | 45 | 279 | 0.0 | 2.0 | 0.00 | 0.00 | 0.00 | 62 | 1013.9 |
| 20260510051600 | 45 | 261 | 0.0 | 2.0 | 0.00 | 0.00 | 0.00 | 61 | 1013.8 |
| 20260510050058 | 44 | 231 | 1.0 | 3.0 | 0.00 | 0.00 | 0.00 | 62 | 1013.5 |
| 20260510044558 | 45 | 297 | 0.0 | 3.0 | 0.00 | 0.00 | 0.00 | 59 | 1013.5 |
| 20260510043055 | 46 | 231 | 0.0 | 2.0 | 0.00 | 0.00 | 0.00 | 58 | 1013.1 |
| 20260510041548 | 46 | 229 | 0.0 | 2.0 | 0.00 | 0.00 | 0.00 | 57 | 1013.0 |
| 20260510040050 | 47 | 230 | 0.0 | 2.0 | 0.00 | 0.00 | 0.00 | 57 | 1012.9 |
| 20260510034550 | 47 | 229 | 0.0 | 2.0 | 0.00 | 0.00 | 0.00 | 55 | 1012.7 |
| 20260510033040 | 48 | 229 | 0.0 | 1.0 | 0.00 | 0.00 | 0.00 | 53 | 1012.5 |
| 20260510031554 | 47 | 228 | 0.0 | 2.0 | 0.00 | 0.00 | 0.00 | 57 | 1012.3 |
| 20260510030038 | 47 | 227 | 0.0 | 2.0 | 0.00 | 0.00 | 0.00 | 55 | 1012.1 |
| 20260510024535 | 48 | 225 | 0.0 | 2.0 | 0.00 | 0.00 | 0.00 | 53 | 1011.8 |
| 20260510023028 | 49 | 225 | 0.0 | 2.0 | 0.00 | 0.00 | 0.00 | 50 | 1011.5 |
| 20260510021532 | 50 | 228 | 0.0 | 2.0 | 0.00 | 0.00 | 0.00 | 47 | 1011.2 |
| 20260510020022 | 52 | 279 | 0.0 | 2.0 | 0.00 | 0.00 | 0.00 | 44 | 1010.9 |
| 20260510014517 | 55 | 5 | 0.0 | 2.0 | 0.00 | 0.00 | 0.00 | 37 | 1010.7 |
| 20260510013015 | 55 | 355 | 0.0 | 3.0 | 0.00 | 0.00 | 0.00 | 37 | 1010.4 |
| 20260510011544 | 56 | 360 | 1.0 | 7.0 | 0.00 | 0.00 | 0.00 | 35 | 1010.0 |
| 20260510010039 | 57 | 355 | 4.0 | 11.0 | 0.00 | 0.00 | 0.00 | 33 | 1009.8 |
| 20260510004533 | 58 | 355 | 4.0 | 8.0 | 0.00 | 0.00 | 0.00 | 32 | 1009.6 |
| 20260510003032 | 58 | 355 | 5.0 | 15.0 | 0.00 | 0.00 | 0.00 | 32 | 1009.4 |
| 20260510001529 | 59 | 19 | 5.0 | 14.0 | 0.00 | 0.00 | 0.00 | 30 | 1009.2 |
| 20260510000026 | 59 | 49 | 5.0 | 13.0 | 0.00 | 0.00 | 0.00 | 29 | 1008.9 |
| 20260509234534 | 59 | 338 | 6.0 | 11.0 | 0.00 | 0.00 | 0.00 | 30 | 1008.8 |
| 20260509233021 | 60 | 355 | 8.0 | 16.0 | 0.00 | 0.00 | 0.00 | 28 | 1008.6 |
| 20260509231519 | 60 | 355 | 9.0 | 18.0 | 0.00 | 0.00 | 0.00 | 27 | 1008.4 |
| 20260509230018 | 60 | 9 | 9.0 | 20.0 | 0.00 | 0.00 | 0.00 | 26 | 1008.2 |
| 20260509224513 | 61 | 333 | 10.0 | 19.0 | 0.00 | 0.00 | 0.00 | 25 | 1008.0 |
| 20260509223016 | 61 | 328 | 11.0 | 19.0 | 0.00 | 0.00 | 0.00 | 25 | 1007.9 |
| 20260509221510 | 62 | 360 | 8.0 | 16.0 | 0.00 | 0.00 | 0.00 | 26 | 1007.6 |
| 20260509220013 | 62 | 36 | 10.0 | 17.0 | 0.00 | 0.00 | 0.00 | 27 | 1007.6 |
| 20260509214505 | 62 | 12 | 6.0 | 19.0 | 0.00 | 0.00 | 0.00 | 28 | 1007.5 |
| 20260509213005 | 62 | 355 | 9.0 | 20.0 | 0.00 | 0.00 | 0.00 | 27 | 1007.4 |
| 20260509211504 | 62 | 355 | 10.0 | 17.0 | 0.00 | 0.00 | 0.00 | 26 | 1007.4 |
| 20260509210003 | 62 | 282 | 9.0 | 18.0 | 0.00 | 0.00 | 0.00 | 27 | 1007.0 |
| 20260509204603 | 63 | 355 | 8.0 | 20.0 | 0.00 | 0.00 | 0.00 | 27 | 1007.0 |
| 20260509203058 | 62 | 13 | 10.0 | 18.0 | 0.00 | 0.00 | 0.00 | 29 | 1006.8 |
| 20260509201557 | 62 | 34 | 7.0 | 18.0 | 0.00 | 0.00 | 0.00 | 30 | 1006.7 |
| 20260509200107 | 62 | 16 | 10.0 | 20.0 | 0.00 | 0.00 | 0.00 | 30 | 1006.6 |
| 20260509194529 | 62 | 322 | 8.0 | 19.0 | 0.00 | 0.00 | 0.00 | 30 | 1006.6 |
| 20260509193025 | 61 | 355 | 7.0 | 19.0 | 0.00 | 0.00 | 0.00 | 28 | 1006.6 |
| 20260509191551 | 61 | 27 | 14.0 | 24.0 | 0.00 | 0.00 | 0.00 | 28 | 1006.3 |
| 20260509190056 | 61 | 323 | 12.0 | 19.0 | 0.00 | 0.00 | 0.00 | 31 | 1006.3 |